Time;durP1;ratioP1;P1;durP2;ratioP2;P2;SDS_P1;SDS_P2;PMS_P1;PMS_P2;Temp;Humidity;BMP_temperature;BMP_pressure;BME280_temperature;BME280_humidity;BME280_pressure;Samples;Min_cycle;Max_cycle;Signal;HPM_P1;HPM_P2
2021/01/08 00:01:42;;;;;;;17.30;7.40;;;2.00;91.20;;;;;;5062513;28;20189;-74
2021/01/08 00:04:08;;;;;;;20.67;8.47;;;2.00;91.30;;;;;;5062818;28;20701;-75
2021/01/08 00:06:35;;;;;;;17.77;8.67;;;2.00;91.40;;;;;;5049055;28;20200;-75
2021/01/08 00:09:00;;;;;;;16.52;7.65;;;2.00;91.50;;;;;;5047530;28;20199;-74
2021/01/08 00:11:26;;;;;;;14.90;8.00;;;1.90;91.50;;;;;;5042677;28;20196;-75
2021/01/08 00:13:53;;;;;;;15.60;8.43;;;1.90;91.60;;;;;;5069079;28;20446;-75
2021/01/08 00:16:19;;;;;;;12.70;7.10;;;1.90;91.60;;;;;;5047367;28;20475;-74
2021/01/08 00:18:45;;;;;;;17.35;8.55;;;1.90;91.80;;;;;;5054322;28;20185;-74
2021/01/08 00:21:12;;;;;;;16.02;8.25;;;1.90;91.90;;;;;;5052727;28;20225;-75
2021/01/08 00:23:38;;;;;;;16.55;9.07;;;1.90;91.80;;;;;;5054481;28;20270;-74
2021/01/08 00:26:03;;;;;;;17.53;7.70;;;1.90;91.80;;;;;;5050575;28;20184;-75
2021/01/08 00:28:29;;;;;;;16.90;8.47;;;1.90;91.60;;;;;;5051278;28;20191;-76
2021/01/08 00:30:55;;;;;;;15.65;7.82;;;1.90;91.40;;;;;;5050082;28;20297;-75
2021/01/08 00:33:21;;;;;;;20.30;8.77;;;1.90;91.60;;;;;;5058949;28;20246;-75
2021/01/08 00:35:47;;;;;;;17.47;8.33;;;1.80;91.90;;;;;;5057617;28;20253;-75
2021/01/08 00:38:13;;;;;;;18.60;8.27;;;1.80;91.80;;;;;;5071686;28;20183;-76
2021/01/08 00:40:38;;;;;;;20.50;8.83;;;1.90;92.10;;;;;;5062894;28;20191;-76
2021/01/08 00:43:05;;;;;;;17.13;8.23;;;1.90;92.00;;;;;;5064895;28;20415;-75
2021/01/08 00:45:31;;;;;;;16.70;7.82;;;2.00;92.00;;;;;;5050448;28;20522;-74
2021/01/08 00:47:57;;;;;;;19.33;8.90;;;1.90;91.80;;;;;;5058408;28;20200;-76
2021/01/08 00:50:23;;;;;;;15.10;7.40;;;2.00;91.90;;;;;;5071070;28;20194;-75
2021/01/08 00:52:48;;;;;;;18.53;8.90;;;1.90;91.90;;;;;;5051837;28;20602;-74
2021/01/08 00:55:14;;;;;;;18.30;8.43;;;1.90;92.10;;;;;;5066984;28;20215;-75
2021/01/08 00:57:40;;;;;;;14.20;8.17;;;1.90;92.20;;;;;;5050933;28;20172;-76
2021/01/08 01:00:08;;;;;;;15.70;7.93;;;1.90;92.20;;;;;;5055107;28;20234;-73
2021/01/08 01:02:35;;;;;;;17.08;8.30;;;1.90;92.20;;;;;;5054345;28;20188;-73
2021/01/08 01:05:01;;;;;;;13.38;6.90;;;1.80;92.10;;;;;;5050226;28;20205;-74
2021/01/08 01:07:26;;;;;;;14.68;7.80;;;1.80;92.30;;;;;;5061706;28;20616;-74
2021/01/08 01:09:52;;;;;;;17.10;8.10;;;1.80;92.20;;;;;;5057524;28;20232;-75
2021/01/08 01:12:18;;;;;;;12.83;6.97;;;1.90;92.10;;;;;;5056527;28;20219;-74
2021/01/08 01:14:44;;;;;;;13.03;7.10;;;1.80;91.60;;;;;;5056997;28;20361;-76
2021/01/08 01:17:11;;;;;;;12.60;6.63;;;1.90;91.50;;;;;;5057266;28;20449;-76
2021/01/08 01:19:37;;;;;;;14.07;7.50;;;1.90;91.30;;;;;;5050363;28;20313;-76
2021/01/08 01:22:03;;;;;;;13.73;6.57;;;2.00;91.20;;;;;;5066973;28;20658;-74
2021/01/08 01:24:29;;;;;;;14.80;7.35;;;2.00;90.80;;;;;;5045698;28;20457;-75
2021/01/08 01:26:58;;;;;;;19.10;8.07;;;2.00;90.70;;;;;;5056536;28;20188;-75
2021/01/08 01:29:23;;;;;;;13.43;6.40;;;2.00;90.50;;;;;;5057254;28;20431;-75
2021/01/08 01:31:49;;;;;;;12.90;6.00;;;2.00;90.50;;;;;;5051044;28;20187;-74
2021/01/08 01:34:15;;;;;;;13.60;7.30;;;2.10;90.50;;;;;;5069341;28;20698;-74
2021/01/08 01:36:41;;;;;;;16.73;7.80;;;2.10;90.10;;;;;;5055012;28;20476;-74
2021/01/08 01:39:07;;;;;;;13.87;7.40;;;2.00;90.00;;;;;;5056393;28;20735;-75
2021/01/08 01:41:32;;;;;;;11.50;6.90;;;1.90;90.20;;;;;;5056666;28;20177;-76
2021/01/08 01:43:59;;;;;;;11.70;6.47;;;1.90;90.30;;;;;;5062815;28;20435;-75
2021/01/08 01:46:25;;;;;;;13.00;6.65;;;1.80;90.50;;;;;;5049117;28;20268;-74
2021/01/08 01:48:51;;;;;;;13.27;7.10;;;1.80;90.70;;;;;;5050325;28;20272;-75
2021/01/08 01:51:20;;;;;;;12.65;7.00;;;1.70;90.90;;;;;;5051561;28;20438;-75
2021/01/08 01:53:47;;;;;;;16.95;7.60;;;1.70;91.00;;;;;;5068292;28;20215;-74
2021/01/08 01:56:13;;;;;;;16.83;7.00;;;1.60;91.00;;;;;;5055208;28;20204;-74
2021/01/08 01:58:39;;;;;;;10.67;5.70;;;1.60;91.10;;;;;;5070077;28;20214;-75
2021/01/08 02:01:05;;;;;;;12.20;6.50;;;1.60;91.20;;;;;;5056229;28;20191;-74
2021/01/08 02:03:39;;;;;;;12.87;5.43;;;1.60;91.10;;;;;;5060570;28;20296;-74
2021/01/08 02:06:12;;;;;;;15.60;6.82;;;1.50;91.30;;;;;;5066629;28;20241;-75
2021/01/08 02:08:45;;;;;;;11.77;6.00;;;1.50;91.50;;;;;;5058264;28;20176;-74
2021/01/08 02:11:15;;;;;;;13.50;6.45;;;1.50;91.50;;;;;;5068196;28;20184;-75
2021/01/08 02:13:57;;;;;;;11.60;5.95;;;1.50;91.70;;;;;;5070403;28;20218;-75
2021/01/08 02:16:24;;;;;;;12.82;6.32;;;1.60;91.70;;;;;;5063287;28;20184;-74
2021/01/08 02:18:53;;;;;;;14.38;5.38;;;1.60;91.50;;;;;;5051059;28;20179;-74
2021/01/08 02:21:33;;;;;;;13.63;6.53;;;1.60;91.20;;;;;;5050683;28;20172;-74
2021/01/08 02:24:12;;;;;;;11.20;5.50;;;1.60;90.80;;;;;;5050762;28;20254;-74
2021/01/08 02:26:38;;;;;;;12.73;6.10;;;1.60;90.70;;;;;;5049473;28;20639;-74
2021/01/08 02:29:04;;;;;;;10.82;5.57;;;1.60;90.80;;;;;;5049091;28;20181;-74
2021/01/08 02:31:30;;;;;;;14.50;5.70;;;1.60;90.50;;;;;;5061990;28;20187;-74
2021/01/08 02:33:56;;;;;;;6.97;4.50;;;1.70;90.30;;;;;;5065565;28;21416;-76
2021/01/08 02:36:23;;;;;;;11.77;5.60;;;1.70;89.00;;;;;;5061571;28;20511;-75
2021/01/08 02:38:50;;;;;;;10.02;5.60;;;1.60;88.60;;;;;;5052818;28;20185;-74
2021/01/08 02:41:18;;;;;;;12.00;5.80;;;1.70;89.20;;;;;;5050323;28;20208;-75
2021/01/08 02:43:45;;;;;;;9.90;5.35;;;1.70;89.20;;;;;;5055283;28;20229;-75
2021/01/08 02:46:11;;;;;;;17.10;6.65;;;1.80;89.20;;;;;;5056062;28;20184;-75
2021/01/08 02:48:37;;;;;;;11.03;5.57;;;1.80;89.20;;;;;;5066337;28;20180;-74
2021/01/08 02:51:03;;;;;;;9.30;5.13;;;1.90;88.70;;;;;;5054662;28;20558;-74
2021/01/08 02:53:31;;;;;;;10.43;5.83;;;1.90;88.40;;;;;;5073954;28;20509;-73
2021/01/08 02:56:02;;;;;;;13.45;6.97;;;1.90;88.40;;;;;;5072907;28;20471;-73
2021/01/08 02:58:29;;;;;;;15.20;6.05;;;1.90;88.30;;;;;;5055274;28;20552;-73
2021/01/08 03:00:56;;;;;;;15.45;7.15;;;1.90;88.70;;;;;;5066713;28;20195;-74
2021/01/08 03:03:26;;;;;;;16.88;7.63;;;1.90;88.60;;;;;;5053479;28;20732;-73
2021/01/08 03:05:51;;;;;;;12.32;5.97;;;2.00;88.70;;;;;;5051763;28;20227;-73
2021/01/08 03:08:17;;;;;;;16.40;6.30;;;1.90;88.70;;;;;;5054124;28;20235;-74
2021/01/08 03:10:43;;;;;;;12.13;6.35;;;1.90;88.70;;;;;;5053119;28;20697;-73
2021/01/08 03:13:10;;;;;;;15.90;6.87;;;1.90;89.00;;;;;;5060709;28;20219;-73
2021/01/08 03:15:36;;;;;;;13.40;6.78;;;1.80;89.50;;;;;;5056815;28;20466;-73
2021/01/08 03:18:02;;;;;;;16.40;7.37;;;1.70;90.10;;;;;;5053232;28;20227;-73
2021/01/08 03:20:28;;;;;;;15.00;6.85;;;1.70;90.50;;;;;;5065214;28;20426;-73
2021/01/08 03:22:53;;;;;;;10.73;5.60;;;1.70;90.60;;;;;;5051869;28;20211;-73
2021/01/08 03:25:19;;;;;;;11.90;5.73;;;1.70;90.80;;;;;;5067034;28;20204;-73
2021/01/08 03:27:45;;;;;;;14.50;7.00;;;1.70;91.00;;;;;;5068864;28;20249;-73
2021/01/08 03:30:12;;;;;;;14.70;7.57;;;1.70;90.70;;;;;;5072084;28;21004;-73
2021/01/08 03:32:38;;;;;;;16.13;8.60;;;1.70;90.80;;;;;;5052934;28;20196;-73
2021/01/08 03:35:05;;;;;;;12.70;7.40;;;1.70;90.90;;;;;;5053226;28;20204;-73
2021/01/08 03:37:31;;;;;;;16.38;7.90;;;1.70;90.70;;;;;;5070746;28;20434;-74
2021/01/08 03:39:57;;;;;;;13.50;6.50;;;1.60;90.80;;;;;;5073174;28;20199;-75
2021/01/08 03:42:23;;;;;;;12.10;6.30;;;1.60;90.70;;;;;;5064978;28;20431;-75
2021/01/08 03:44:49;;;;;;;16.03;7.63;;;1.60;90.50;;;;;;5067505;28;20502;-74
2021/01/08 03:47:15;;;;;;;15.13;6.57;;;1.60;90.50;;;;;;5064177;28;20461;-75
2021/01/08 03:49:40;;;;;;;14.97;7.87;;;1.60;90.60;;;;;;5067267;28;20578;-74
2021/01/08 03:52:07;;;;;;;15.40;8.13;;;1.60;90.70;;;;;;5062650;28;20196;-76
2021/01/08 03:54:34;;;;;;;15.80;6.50;;;1.50;90.70;;;;;;5065300;28;20212;-75
2021/01/08 03:56:59;;;;;;;14.63;7.60;;;1.50;91.00;;;;;;5051276;28;20687;-77
2021/01/08 03:59:25;;;;;;;14.33;6.87;;;1.50;91.20;;;;;;5054682;28;20188;-76
2021/01/08 04:01:51;;;;;;;16.13;7.43;;;1.60;91.20;;;;;;5062266;28;20539;-75
2021/01/08 04:04:17;;;;;;;16.80;7.17;;;1.50;91.10;;;;;;5063739;28;20458;-76
2021/01/08 04:06:43;;;;;;;14.20;6.43;;;1.50;91.30;;;;;;5052317;28;20183;-76
2021/01/08 04:09:08;;;;;;;13.37;6.47;;;1.60;91.30;;;;;;5052841;28;20275;-76
2021/01/08 04:11:34;;;;;;;13.07;7.23;;;1.60;91.20;;;;;;5064926;28;20181;-76
2021/01/08 04:14:00;;;;;;;12.80;6.70;;;1.50;91.10;;;;;;5066750;28;20224;-75
2021/01/08 04:16:35;;;;;;;14.80;6.33;;;1.50;91.30;;;;;;5063853;28;20212;-75
2021/01/08 04:19:02;;;;;;;13.63;6.65;;;1.50;91.30;;;;;;5052109;28;20188;-77
2021/01/08 04:21:28;;;;;;;14.63;5.88;;;1.50;91.10;;;;;;5061469;28;20176;-75
2021/01/08 04:23:54;;;;;;;13.60;7.00;;;1.40;91.10;;;;;;5053170;28;20258;-75
2021/01/08 04:26:20;;;;;;;11.57;6.43;;;1.50;91.10;;;;;;5060452;28;20194;-75
2021/01/08 04:28:46;;;;;;;13.15;6.65;;;1.50;91.10;;;;;;5062058;28;20189;-75
2021/01/08 04:31:13;;;;;;;13.70;6.37;;;1.40;91.00;;;;;;5062373;28;20250;-74
2021/01/08 04:33:43;;;;;;;13.98;6.35;;;1.40;91.10;;;;;;5053856;28;20250;-75
2021/01/08 04:36:10;;;;;;;13.25;6.47;;;1.40;91.10;;;;;;5060855;28;20299;-76
2021/01/08 04:38:39;;;;;;;13.65;5.80;;;1.40;91.10;;;;;;5063171;28;20263;-75
2021/01/08 04:41:06;;;;;;;13.00;7.18;;;1.50;91.10;;;;;;5050227;28;20185;-75
2021/01/08 04:43:32;;;;;;;15.32;6.00;;;1.50;90.90;;;;;;5051377;28;20674;-74
2021/01/08 04:46:12;;;;;;;12.57;6.60;;;1.50;90.80;;;;;;5050751;28;20234;-73
2021/01/08 04:48:38;;;;;;;11.57;6.05;;;1.50;90.80;;;;;;5057677;28;20175;-74
2021/01/08 04:51:05;;;;;;;13.63;7.03;;;1.60;90.70;;;;;;5071132;28;20261;-73
2021/01/08 04:53:32;;;;;;;14.82;6.70;;;1.60;90.70;;;;;;5051602;28;20442;-75
2021/01/08 04:56:05;;;;;;;13.32;6.10;;;1.60;90.70;;;;;;5065567;28;20200;-75
2021/01/08 04:58:32;;;;;;;15.60;6.60;;;1.60;90.70;;;;;;5051457;28;20184;-75
2021/01/08 05:00:59;;;;;;;12.43;5.90;;;1.60;90.80;;;;;;5051588;28;20259;-74
2021/01/08 05:03:26;;;;;;;14.63;6.22;;;1.50;90.70;;;;;;5050084;28;20254;-75
2021/01/08 05:05:51;;;;;;;13.27;6.57;;;1.50;90.90;;;;;;5050344;28;20229;-74
2021/01/08 05:08:17;;;;;;;12.93;6.57;;;1.50;91.00;;;;;;5044999;28;20181;-74
2021/01/08 05:10:44;;;;;;;13.70;6.70;;;1.50;91.10;;;;;;5057547;28;20192;-75
2021/01/08 05:13:10;;;;;;;11.35;5.97;;;1.50;90.90;;;;;;5071119;28;20643;-74
2021/01/08 05:15:36;;;;;;;13.30;6.15;;;1.50;90.80;;;;;;5057161;28;20188;-74
2021/01/08 05:18:02;;;;;;;13.03;7.23;;;1.50;90.80;;;;;;5075401;28;20263;-75
2021/01/08 05:20:28;;;;;;;9.27;5.53;;;1.50;91.10;;;;;;5067271;28;20279;-73
2021/01/08 05:22:57;;;;;;;15.40;6.10;;;1.40;91.20;;;;;;5054702;28;20277;-75
2021/01/08 05:25:23;;;;;;;14.65;7.05;;;1.40;91.50;;;;;;5063751;28;20713;-75
2021/01/08 05:27:50;;;;;;;12.00;5.80;;;1.40;91.50;;;;;;5058645;28;20180;-74
2021/01/08 05:30:25;;;;;;;15.02;6.35;;;1.40;91.50;;;;;;5055220;28;20219;-73
2021/01/08 05:33:05;;;;;;;12.90;6.53;;;1.40;91.60;;;;;;5059252;28;20203;-75
2021/01/08 05:35:32;;;;;;;11.60;5.72;;;1.40;91.50;;;;;;5064907;28;20707;-74
2021/01/08 05:38:05;;;;;;;10.63;6.00;;;1.40;91.30;;;;;;5062472;28;20183;-75
2021/01/08 05:40:30;;;;;;;9.52;5.65;;;1.50;91.50;;;;;;5070387;28;20176;-75
2021/01/08 05:43:02;;;;;;;10.80;5.50;;;1.50;91.20;;;;;;5070821;28;20188;-75
2021/01/08 05:45:29;;;;;;;11.52;5.20;;;1.40;91.30;;;;;;5044475;28;20215;-75
2021/01/08 05:48:00;;;;;;;11.55;6.45;;;1.40;91.20;;;;;;5055048;28;20246;-75
2021/01/08 05:50:28;;;;;;;11.35;5.85;;;1.40;91.50;;;;;;5050444;28;20180;-75
2021/01/08 05:53:04;;;;;;;8.75;5.25;;;1.40;91.60;;;;;;5050801;28;20268;-74
2021/01/08 05:55:38;;;;;;;10.73;6.00;;;1.50;91.50;;;;;;5059443;28;20203;-75
2021/01/08 05:58:23;;;;;;;10.88;6.00;;;1.50;91.20;;;;;;5052040;28;20180;-75
2021/01/08 06:00:55;;;;;;;10.18;5.45;;;1.50;91.20;;;;;;5048489;28;20211;-74
2021/01/08 06:03:22;;;;;;;10.35;5.50;;;1.50;91.10;;;;;;5057712;28;20180;-73
2021/01/08 06:06:00;;;;;;;11.70;6.45;;;1.50;91.10;;;;;;5054456;28;20188;-74
2021/01/08 06:08:36;;;;;;;15.32;7.03;;;1.50;91.00;;;;;;5049399;28;20192;-74
2021/01/08 06:11:05;;;;;;;11.73;6.25;;;1.50;91.10;;;;;;5048524;28;20199;-75
2021/01/08 06:13:35;;;;;;;11.88;5.90;;;1.40;91.30;;;;;;5056781;28;20221;-75
2021/01/08 06:16:02;;;;;;;15.80;5.80;;;1.40;91.50;;;;;;5044839;28;21104;-74
2021/01/08 06:18:29;;;;;;;12.68;5.97;;;1.30;91.50;;;;;;5050192;28;20189;-74
2021/01/08 06:21:06;;;;;;;9.05;5.43;;;1.30;91.70;;;;;;5044174;28;20176;-76
2021/01/08 06:23:43;;;;;;;9.40;5.05;;;1.30;91.70;;;;;;5050225;28;20211;-74
2021/01/08 06:26:10;;;;;;;13.80;6.35;;;1.30;91.80;;;;;;5058902;28;20184;-75
2021/01/08 06:28:39;;;;;;;10.07;5.18;;;1.30;91.80;;;;;;5054791;28;20204;-74
2021/01/08 06:31:10;;;;;;;7.78;4.63;;;1.30;91.70;;;;;;5051601;28;20263;-75
2021/01/08 06:33:37;;;;;;;11.25;5.90;;;1.40;91.70;;;;;;5055945;28;20291;-75
2021/01/08 06:36:16;;;;;;;9.88;5.28;;;1.40;91.60;;;;;;5055680;28;20303;-76
2021/01/08 06:38:55;;;;;;;10.27;5.10;;;1.50;91.30;;;;;;5055817;28;20180;-75
2021/01/08 06:41:21;;;;;;;13.02;5.78;;;1.50;91.20;;;;;;5056134;28;20257;-76
2021/01/08 06:43:58;;;;;;;9.95;4.75;;;1.60;91.00;;;;;;5057662;28;20234;-74
2021/01/08 06:46:33;;;;;;;10.60;4.97;;;1.70;90.60;;;;;;5053206;28;20184;-74
2021/01/08 06:49:08;;;;;;;11.55;4.50;;;1.70;90.40;;;;;;5049537;28;20233;-75
2021/01/08 06:51:38;;;;;;;10.57;4.57;;;1.70;90.30;;;;;;5052661;28;20262;-75
2021/01/08 06:54:12;;;;;;;8.35;4.47;;;1.70;90.20;;;;;;5051227;28;20200;-75
2021/01/08 06:56:46;;;;;;;9.35;4.85;;;1.70;90.30;;;;;;5040631;28;20183;-75
2021/01/08 06:59:16;;;;;;;11.07;5.13;;;1.60;90.10;;;;;;5067072;28;20192;-75
2021/01/08 07:02:11;;;;;;;11.70;5.47;;;1.60;90.30;;;;;;5063054;28;20165;-76
2021/01/08 07:04:40;;;;;;;11.70;5.63;;;1.60;90.30;;;;;;5048706;28;20204;-75
2021/01/08 07:07:21;;;;;;;8.50;4.85;;;1.70;90.30;;;;;;5050889;28;20593;-75
2021/01/08 07:09:47;;;;;;;13.13;5.57;;;1.60;90.40;;;;;;5049415;28;20195;-75
2021/01/08 07:12:13;;;;;;;9.68;5.35;;;1.60;90.60;;;;;;5047988;28;20196;-74
2021/01/08 07:14:39;;;;;;;13.77;6.20;;;1.70;90.50;;;;;;5048614;28;20824;-74
2021/01/08 07:17:09;;;;;;;9.80;5.60;;;1.70;90.40;;;;;;5048904;28;20418;-73
2021/01/08 07:19:38;;;;;;;10.52;5.18;;;1.70;90.40;;;;;;5049437;28;20282;-74
2021/01/08 07:22:05;;;;;;;10.40;5.40;;;1.70;90.30;;;;;;5048008;28;20184;-74
2021/01/08 07:24:32;;;;;;;11.40;5.30;;;1.70;90.40;;;;;;5056394;28;20208;-74
2021/01/08 07:27:18;;;;;;;12.63;5.60;;;1.70;90.50;;;;;;5055823;28;20173;-73
2021/01/08 07:29:54;;;;;;;12.00;5.75;;;1.70;90.60;;;;;;5058372;28;20314;-75
2021/01/08 07:32:40;;;;;;;10.85;5.93;;;1.70;90.60;;;;;;5048163;28;20180;-75
2021/01/08 07:35:30;;;;;;;9.35;5.10;;;1.70;90.60;;;;;;5050487;28;20224;-75
2021/01/08 07:37:56;;;;;;;11.88;5.45;;;1.70;90.80;;;;;;5073090;28;20211;-76
2021/01/08 07:40:23;;;;;;;9.77;6.00;;;1.70;90.80;;;;;;5068076;28;20181;-76
2021/01/08 07:42:59;;;;;;;11.80;5.75;;;1.80;90.80;;;;;;5065636;28;20263;-75
2021/01/08 07:45:44;;;;;;;10.85;5.78;;;1.80;90.70;;;;;;5046133;28;20199;-74
2021/01/08 07:48:38;;;;;;;12.68;6.20;;;1.70;90.90;;;;;;5073447;28;20191;-75
2021/01/08 07:51:09;;;;;;;13.43;5.95;;;1.70;91.00;;;;;;5052335;28;20193;-74
2021/01/08 07:53:49;;;;;;;10.52;5.50;;;1.70;90.90;;;;;;5047872;28;20287;-74
2021/01/08 07:56:20;;;;;;;9.80;5.53;;;1.70;90.90;;;;;;5069012;28;20736;-75
2021/01/08 07:58:47;;;;;;;11.02;6.03;;;1.80;90.80;;;;;;5052336;28;20212;-74
2021/01/08 08:01:15;;;;;;;11.00;5.45;;;1.80;90.80;;;;;;5052180;28;20176;-75
2021/01/08 08:03:41;;;;;;;10.30;5.65;;;1.80;90.90;;;;;;5051061;28;20204;-74
2021/01/08 08:06:08;;;;;;;11.57;5.55;;;1.90;90.60;;;;;;5068619;28;20227;-74
2021/01/08 08:08:40;;;;;;;12.88;6.43;;;1.80;90.40;;;;;;5061858;28;20211;-74
2021/01/08 08:11:10;;;;;;;14.85;5.85;;;1.80;90.60;;;;;;5069705;28;20192;-74
2021/01/08 08:13:36;;;;;;;10.65;4.97;;;1.80;90.80;;;;;;5061350;28;20211;-77
2021/01/08 08:16:02;;;;;;;11.05;5.78;;;1.80;90.90;;;;;;5056248;28;20698;-75
2021/01/08 08:18:28;;;;;;;8.90;5.00;;;1.80;90.90;;;;;;5071664;28;20188;-74
2021/01/08 08:21:07;;;;;;;8.93;4.50;;;1.90;91.00;;;;;;5066622;28;20434;-75
2021/01/08 08:23:33;;;;;;;8.82;4.55;;;1.80;90.80;;;;;;5051120;28;20212;-75
2021/01/08 08:25:59;;;;;;;8.80;4.80;;;1.80;90.80;;;;;;5050848;28;20173;-75
2021/01/08 08:28:24;;;;;;;11.57;5.43;;;1.80;91.00;;;;;;5051009;28;20415;-74
2021/01/08 08:30:52;;;;;;;9.47;5.00;;;1.80;91.20;;;;;;5073741;28;20222;-74
2021/01/08 08:33:22;;;;;;;14.82;5.40;;;1.80;91.30;;;;;;5072196;28;20269;-75
2021/01/08 08:35:48;;;;;;;10.20;5.57;;;1.90;91.60;;;;;;5058305;28;20564;-74
2021/01/08 08:38:14;;;;;;;10.15;5.00;;;1.90;91.50;;;;;;5067581;28;20191;-74
2021/01/08 08:40:40;;;;;;;9.30;5.70;;;2.00;91.50;;;;;;5058278;28;20195;-74
2021/01/08 08:43:06;;;;;;;10.90;5.00;;;2.00;91.00;;;;;;5056835;28;20419;-74
2021/01/08 08:45:34;;;;;;;16.50;6.65;;;2.00;91.00;;;;;;5061173;28;20960;-74
2021/01/08 08:48:05;;;;;;;9.07;4.95;;;2.00;91.20;;;;;;5050084;28;20221;-75
2021/01/08 08:50:34;;;;;;;8.15;5.35;;;2.00;91.10;;;;;;5059130;28;20212;-75
2021/01/08 08:53:10;;;;;;;9.32;4.63;;;2.00;91.30;;;;;;5057331;28;20741;-74
2021/01/08 08:55:36;;;;;;;9.38;4.57;;;2.00;91.50;;;;;;5057147;28;20219;-75
2021/01/08 08:58:10;;;;;;;6.97;4.47;;;2.00;91.40;;;;;;5048594;28;20836;-74
2021/01/08 09:00:43;;;;;;;12.85;5.93;;;1.90;91.60;;;;;;5057657;28;20422;-75
2021/01/08 09:03:24;;;;;;;7.75;4.53;;;2.00;91.80;;;;;;5056940;28;20192;-74
2021/01/08 09:05:52;;;;;;;9.73;4.38;;;2.00;91.80;;;;;;5054492;28;20191;-74
2021/01/08 09:08:18;;;;;;;11.73;5.07;;;2.00;91.80;;;;;;5048789;28;20191;-74
2021/01/08 09:11:13;;;;;;;10.35;5.20;;;2.00;91.90;;;;;;5061733;28;20271;-74
2021/01/08 09:14:01;;;;;;;7.22;4.25;;;2.10;92.10;;;;;;5050478;28;20278;-75
2021/01/08 09:17:16;;;;;;;10.15;4.80;;;2.20;92.30;;;;;;5057051;28;20298;-74
2021/01/08 09:19:54;;;;;;;8.50;4.25;;;2.30;92.20;;;;;;4941037;28;20218;-73
2021/01/08 09:22:20;;;;;;;8.90;4.60;;;2.40;92.00;;;;;;4967761;28;20699;-75
2021/01/08 09:24:49;;;;;;;13.32;5.57;;;2.30;91.80;;;;;;4977709;28;20249;-73
2021/01/08 09:27:16;;;;;;;9.48;4.20;;;2.30;91.60;;;;;;4984098;28;20190;-74
2021/01/08 09:29:42;;;;;;;13.27;5.70;;;2.20;91.50;;;;;;4972560;28;20191;-75
2021/01/08 09:32:08;;;;;;;7.03;4.30;;;2.20;91.80;;;;;;4971419;28;20293;-74
2021/01/08 09:34:36;;;;;;;7.82;4.85;;;2.30;91.90;;;;;;4970229;28;20260;-73
2021/01/08 09:37:16;;;;;;;8.48;4.45;;;2.40;91.90;;;;;;4971390;28;20499;-74
2021/01/08 09:39:43;;;;;;;8.02;4.50;;;2.50;91.70;;;;;;4977818;28;20171;-72
2021/01/08 09:42:11;;;;;;;7.85;4.30;;;2.50;91.10;;;;;;4976541;28;20816;-73
2021/01/08 09:44:39;;;;;;;7.10;3.70;;;2.50;91.00;;;;;;4976600;28;20215;-75
2021/01/08 09:47:09;;;;;;;5.57;3.70;;;2.60;91.00;;;;;;4964235;28;20187;-73
2021/01/08 09:49:43;;;;;;;8.23;4.47;;;2.60;90.50;;;;;;5006045;28;20196;-73
2021/01/08 09:52:11;;;;;;;10.35;4.20;;;2.50;89.60;;;;;;5069487;28;20585;-73
2021/01/08 09:54:47;;;;;;;7.63;3.95;;;2.50;89.90;;;;;;5055553;28;20284;-74
2021/01/08 09:57:35;;;;;;;6.82;3.50;;;2.60;90.30;;;;;;5067981;28;20258;-75
2021/01/08 10:00:01;;;;;;;6.10;3.33;;;2.70;89.90;;;;;;5048836;28;20191;-73
2021/01/08 10:02:41;;;;;;;5.10;2.85;;;2.70;89.20;;;;;;5050186;28;20238;-75
2021/01/08 10:05:19;;;;;;;5.40;3.33;;;2.70;88.90;;;;;;5049875;28;20210;-75
2021/01/08 10:07:46;;;;;;;5.68;3.22;;;2.90;88.60;;;;;;5063531;28;20188;-74
2021/01/08 10:10:33;;;;;;;6.95;3.55;;;2.90;88.10;;;;;;5059918;28;20670;-74
2021/01/08 10:13:00;;;;;;;4.80;3.33;;;3.00;87.80;;;;;;5069114;28;20218;-76
2021/01/08 10:15:43;;;;;;;6.28;3.20;;;2.90;85.50;;;;;;5068777;28;20248;-75
2021/01/08 10:18:12;;;;;;;6.55;3.50;;;2.70;85.60;;;;;;5038375;28;20177;-76
2021/01/08 10:20:44;;;;;;;6.68;3.65;;;2.80;86.90;;;;;;5049003;28;20401;-76
2021/01/08 10:23:12;;;;;;;7.63;3.33;;;2.80;86.00;;;;;;5049683;28;20191;-75
2021/01/08 10:25:38;;;;;;;6.75;3.53;;;2.70;85.90;;;;;;5047619;28;20564;-76
2021/01/08 10:28:37;;;;;;;9.20;3.20;;;2.70;86.60;;;;;;5051728;28;20225;-75
2021/01/08 10:31:03;;;;;;;6.30;3.85;;;2.70;86.00;;;;;;5015680;28;20438;-76
2021/01/08 10:33:28;;;;;;;6.20;3.37;;;2.70;85.70;;;;;;5049742;28;20629;-75
2021/01/08 10:35:55;;;;;;;7.03;3.90;;;2.70;85.50;;;;;;5049342;28;20224;-75
2021/01/08 10:38:22;;;;;;;5.68;3.50;;;2.70;85.60;;;;;;5048092;28;20188;-75
2021/01/08 10:40:48;;;;;;;7.70;3.58;;;2.80;85.50;;;;;;5049192;28;20726;-76
2021/01/08 10:43:14;;;;;;;5.85;3.20;;;2.80;85.30;;;;;;5051637;28;20267;-75
2021/01/08 10:45:40;;;;;;;5.22;3.47;;;2.80;84.70;;;;;;5058435;28;20192;-76
2021/01/08 10:48:06;;;;;;;4.70;3.00;;;2.80;84.30;;;;;;5049573;28;20210;-77
2021/01/08 10:50:33;;;;;;;6.15;3.65;;;2.80;83.70;;;;;;5049171;28;20184;-76
2021/01/08 10:52:59;;;;;;;6.68;3.90;;;2.60;83.30;;;;;;5048929;28;20184;-74
2021/01/08 10:55:25;;;;;;;7.15;3.78;;;2.60;84.00;;;;;;5047917;28;20254;-75
2021/01/08 10:57:51;;;;;;;5.23;3.00;;;2.70;83.80;;;;;;5049697;28;20228;-75
2021/01/08 11:00:19;;;;;;;7.37;3.67;;;2.70;84.00;;;;;;5059380;28;20426;-76
2021/01/08 11:02:45;;;;;;;7.80;3.90;;;2.70;84.30;;;;;;5051815;28;20446;-75
2021/01/08 11:05:11;;;;;;;7.40;4.20;;;2.90;84.30;;;;;;5046699;28;20683;-76
2021/01/08 11:07:37;;;;;;;7.85;4.25;;;3.00;82.50;;;;;;5048061;28;20430;-75
2021/01/08 11:10:05;;;;;;;6.77;4.10;;;3.10;81.70;;;;;;5060397;28;20206;-75
2021/01/08 11:12:34;;;;;;;6.18;4.03;;;3.00;81.20;;;;;;5070638;28;20513;-74
2021/01/08 11:15:00;;;;;;;6.68;4.00;;;3.00;81.70;;;;;;5052047;28;20277;-74
2021/01/08 11:17:27;;;;;;;6.30;3.90;;;3.00;81.40;;;;;;5052231;28;21092;-75
2021/01/08 11:19:53;;;;;;;5.82;3.85;;;3.00;81.50;;;;;;5050982;28;20188;-75
2021/01/08 11:22:19;;;;;;;7.97;3.97;;;3.10;80.90;;;;;;5064453;28;20735;-75
2021/01/08 11:24:44;;;;;;;9.03;4.53;;;3.00;81.20;;;;;;5050285;28;20218;-75
2021/01/08 11:27:10;;;;;;;9.30;4.67;;;3.10;81.10;;;;;;5050950;28;21052;-76
2021/01/08 11:29:36;;;;;;;7.77;3.77;;;3.20;79.30;;;;;;5056954;28;20267;-76
2021/01/08 11:32:06;;;;;;;8.00;4.23;;;3.10;78.90;;;;;;5052148;28;20199;-75
2021/01/08 11:34:32;;;;;;;7.45;4.40;;;3.00;79.50;;;;;;5051601;28;20275;-76
2021/01/08 11:36:57;;;;;;;7.87;4.67;;;3.20;80.30;;;;;;5052004;28;20181;-76
2021/01/08 11:39:24;;;;;;;6.40;4.10;;;3.40;79.70;;;;;;5051896;28;20238;-74
2021/01/08 11:41:54;;;;;;;8.70;3.93;;;3.60;79.00;;;;;;5052809;28;20184;-75
2021/01/08 11:44:21;;;;;;;8.88;3.78;;;3.60;75.80;;;;;;5051293;28;20446;-75
2021/01/08 11:46:48;;;;;;;5.93;3.13;;;3.40;76.40;;;;;;5057393;28;20575;-75
2021/01/08 11:49:15;;;;;;;6.90;3.60;;;3.40;77.00;;;;;;5068078;28;20188;-74
2021/01/08 11:51:40;;;;;;;10.27;3.70;;;3.30;75.80;;;;;;5081165;28;20251;-76
2021/01/08 11:54:06;;;;;;;8.33;4.03;;;3.30;76.40;;;;;;5085753;28;20208;-74
2021/01/08 11:56:32;;;;;;;7.83;3.43;;;3.30;76.50;;;;;;5066801;28;20209;-74
2021/01/08 11:58:58;;;;;;;4.70;3.53;;;3.20;75.80;;;;;;5062082;28;20192;-75
2021/01/08 12:01:24;;;;;;;7.13;4.60;;;3.20;76.10;;;;;;5070472;28;20445;-75
2021/01/08 12:03:51;;;;;;;6.38;3.97;;;3.20;76.40;;;;;;5060645;28;20743;-74
2021/01/08 12:06:17;;;;;;;5.38;3.33;;;3.30;76.40;;;;;;5072968;28;20188;-75
2021/01/08 12:08:42;;;;;;;7.78;4.18;;;3.30;76.20;;;;;;5056710;28;20556;-75
2021/01/08 12:11:08;;;;;;;6.70;3.90;;;3.30;75.70;;;;;;5065746;28;20184;-73
2021/01/08 12:13:34;;;;;;;7.90;4.78;;;3.30;75.70;;;;;;5052160;28;20243;-75
2021/01/08 12:16:00;;;;;;;8.07;4.17;;;3.30;75.70;;;;;;5064119;28;20236;-75
2021/01/08 12:18:26;;;;;;;9.33;4.43;;;3.10;75.90;;;;;;5051777;28;20196;-74
2021/01/08 12:20:51;;;;;;;9.30;4.37;;;3.20;76.50;;;;;;5050078;28;20196;-74
2021/01/08 12:23:17;;;;;;;6.63;4.23;;;3.10;76.80;;;;;;5051863;28;20616;-75
2021/01/08 12:25:43;;;;;;;8.20;4.93;;;3.10;77.40;;;;;;5051124;28;20195;-73
2021/01/08 12:28:10;;;;;;;7.60;3.80;;;3.20;78.00;;;;;;5055753;28;20192;-75
2021/01/08 12:30:37;;;;;;;7.50;4.30;;;3.10;77.40;;;;;;5056285;28;20769;-75
2021/01/08 12:33:03;;;;;;;9.68;4.53;;;3.00;77.80;;;;;;5051622;28;20822;-75
2021/01/08 12:35:30;;;;;;;12.27;4.45;;;3.00;77.80;;;;;;5049697;28;20303;-76
2021/01/08 12:37:56;;;;;;;7.28;4.50;;;2.80;78.10;;;;;;5051163;28;20191;-74
2021/01/08 12:40:22;;;;;;;8.02;4.65;;;2.90;78.70;;;;;;5050887;28;20564;-75
2021/01/08 12:42:52;;;;;;;8.88;4.85;;;2.90;78.40;;;;;;5050896;28;20639;-74
2021/01/08 12:45:20;;;;;;;10.57;5.45;;;2.80;79.00;;;;;;5049034;28;20597;-75
2021/01/08 12:47:46;;;;;;;8.07;4.43;;;2.90;79.20;;;;;;5049560;28;20192;-74
2021/01/08 12:50:13;;;;;;;11.00;5.00;;;2.80;79.30;;;;;;5050550;28;20184;-74
2021/01/08 12:52:39;;;;;;;10.23;4.38;;;2.80;79.60;;;;;;5050651;28;20188;-75
2021/01/08 12:55:06;;;;;;;11.07;4.60;;;2.70;80.00;;;;;;5035617;28;20212;-75
2021/01/08 12:57:32;;;;;;;9.43;4.72;;;2.70;80.30;;;;;;5049343;28;20427;-76
2021/01/08 12:59:58;;;;;;;9.33;4.50;;;2.70;81.10;;;;;;5050273;28;20275;-74